createdAt,value
2019-05-18T00:00:29.717Z,98.96
2019-05-18T00:03:01.782Z,98.68
2019-05-18T00:05:34.228Z,98.54
2019-05-18T00:08:06.463Z,98.62
2019-05-18T00:10:40.231Z,98.61
2019-05-18T00:13:12.429Z,98.51
2019-05-18T00:15:44.367Z,98.39
2019-05-18T00:18:16.453Z,98.11
2019-05-18T00:20:48.411Z,97.98
2019-05-18T00:23:20.360Z,97.77
2019-05-18T00:25:52.344Z,97.47
2019-05-18T00:28:24.471Z,97.19
2019-05-18T00:30:56.489Z,96.92
2019-05-18T00:33:28.529Z,96.71
2019-05-18T00:36:00.929Z,96.54
2019-05-18T00:38:32.922Z,96.39
2019-05-18T00:41:05.025Z,96.23
2019-05-18T00:43:37.075Z,96.09
2019-05-18T00:46:09.019Z,95.95
2019-05-18T00:48:41.269Z,95.84
2019-05-18T00:51:13.408Z,95.68
2019-05-18T00:53:45.377Z,95.71
2019-05-18T00:56:17.529Z,95.64
2019-05-18T00:58:49.723Z,95.96
2019-05-18T01:01:21.720Z,96.32
2019-05-18T01:03:53.753Z,96.61
2019-05-18T01:06:25.716Z,97.04
2019-05-18T01:08:57.738Z,97.00
2019-05-18T01:11:29.750Z,96.86
2019-05-18T01:14:01.875Z,96.63
2019-05-18T01:16:33.878Z,96.46
2019-05-18T01:19:05.945Z,96.30
2019-05-18T01:21:38.114Z,96.14
2019-05-18T01:24:10.696Z,95.97
2019-05-18T01:26:42.681Z,95.94
2019-05-18T01:29:14.651Z,96.19
2019-05-18T01:31:47.787Z,96.35
2019-05-18T01:34:19.752Z,96.42
2019-05-18T01:36:51.993Z,96.25
2019-05-18T01:39:24.058Z,96.15
2019-05-18T01:41:57.869Z,95.98
2019-05-18T01:44:30.257Z,95.83
2019-05-18T01:47:02.467Z,95.71
2019-05-18T01:49:35.498Z,95.60
2019-05-18T01:52:07.565Z,95.46
2019-05-18T01:54:39.550Z,95.54
2019-05-18T01:57:11.543Z,95.55
2019-05-18T01:59:43.644Z,95.55
2019-05-18T02:02:15.655Z,95.57
2019-05-18T02:04:47.653Z,95.58
2019-05-18T02:07:20.338Z,95.50
2019-05-18T02:09:52.330Z,95.36
2019-05-18T02:12:24.290Z,95.66
2019-05-18T02:14:56.257Z,97.76
2019-05-18T02:17:28.261Z,98.90
2019-05-18T02:20:00.206Z,99.45
2019-05-18T02:22:32.169Z,99.65
2019-05-18T02:25:04.648Z,99.53
2019-05-18T02:27:36.634Z,99.06
2019-05-18T02:30:09.518Z,98.82
2019-05-18T02:32:41.565Z,98.72
2019-05-18T02:35:14.256Z,98.55
2019-05-18T02:37:47.332Z,98.41
2019-05-18T02:40:19.579Z,98.21
2019-05-18T02:42:51.559Z,98.09
2019-05-18T02:45:23.560Z,97.94
2019-05-18T02:47:55.729Z,97.79
2019-05-18T02:50:28.020Z,97.64
2019-05-18T02:53:00.365Z,97.52
2019-05-18T02:55:32.329Z,97.44
2019-05-18T02:58:04.300Z,97.36
2019-05-18T03:00:36.322Z,97.26
2019-05-18T03:03:08.324Z,97.23
2019-05-18T03:05:40.397Z,97.40
2019-05-18T03:08:12.399Z,97.46
2019-05-18T03:10:44.536Z,97.49
2019-05-18T03:13:16.807Z,97.57
2019-05-18T03:15:48.783Z,97.56
2019-05-18T03:18:21.179Z,97.43
2019-05-18T03:20:53.271Z,97.42
2019-05-18T03:23:25.365Z,97.27
2019-05-18T03:25:57.699Z,97.13
2019-05-18T03:28:29.936Z,96.94
2019-05-18T03:31:02.082Z,96.88
2019-05-18T03:33:34.287Z,96.85
2019-05-18T03:36:06.250Z,96.79
2019-05-18T03:38:38.254Z,96.72
2019-05-18T03:41:10.222Z,96.77
2019-05-18T03:43:42.644Z,96.84
2019-05-18T03:46:14.629Z,96.81
2019-05-18T03:48:46.742Z,96.67
2019-05-18T03:51:18.709Z,96.55
2019-05-18T03:53:50.716Z,96.41
2019-05-18T03:56:22.732Z,96.20
2019-05-18T03:58:54.695Z,96.06
2019-05-18T04:01:26.792Z,95.92
2019-05-18T04:03:58.841Z,95.83
2019-05-18T04:06:31.704Z,95.75
2019-05-18T04:09:04.752Z,95.68
2019-05-18T04:11:36.769Z,95.55
2019-05-18T04:14:08.948Z,95.43
2019-05-18T04:16:41.185Z,95.22
2019-05-18T04:19:13.195Z,95.15
2019-05-18T04:21:45.204Z,95.03
2019-05-18T04:24:17.213Z,94.90
2019-05-18T04:26:50.387Z,94.64
2019-05-18T04:29:22.411Z,94.46
2019-05-18T04:31:54.410Z,94.21
2019-05-18T04:34:26.719Z,93.69
2019-05-18T04:36:58.773Z,93.01
2019-05-18T04:39:31.125Z,92.78
2019-05-18T04:42:03.114Z,91.71
2019-05-18T04:44:35.190Z,89.95
2019-05-18T04:47:07.175Z,87.99
2019-05-18T04:49:39.204Z,85.23
2019-05-18T04:52:11.275Z,80.95
2019-05-18T04:54:44.515Z,73.77
2019-05-18T04:57:16.726Z,67.85
2019-05-18T04:59:48.824Z,60.27
2019-05-18T05:02:21.169Z,54.64
2019-05-18T05:04:56.551Z,49.65
2019-05-18T05:07:26.947Z,44.90
2019-05-18T05:09:59.278Z,40.19
2019-05-18T05:12:31.252Z,36.73
2019-05-18T05:15:03.233Z,32.81
2019-05-18T05:17:35.189Z,28.42
2019-05-18T05:20:19.399Z,26.02
2019-05-18T05:22:41.250Z,23.40
2019-05-18T05:25:13.331Z,21.54
2019-05-18T05:27:45.350Z,20.57
2019-05-18T05:30:18.005Z,19.80
2019-05-18T05:32:50.345Z,17.79
2019-05-18T05:35:22.320Z,16.65
2019-05-18T05:37:54.269Z,16.32
2019-05-18T05:40:26.243Z,15.58
2019-05-18T05:42:58.197Z,14.39
2019-05-18T05:45:30.223Z,12.75
2019-05-18T05:48:02.193Z,12.26
2019-05-18T05:50:36.383Z,10.93
2019-05-18T05:53:07.955Z,10.16
2019-05-18T05:55:39.919Z,9.65
2019-05-18T05:58:11.879Z,8.87
2019-05-18T06:00:43.875Z,8.83
2019-05-18T06:03:15.861Z,7.59
2019-05-18T06:05:47.855Z,6.95
2019-05-18T06:08:20.539Z,7.11
2019-05-18T06:10:52.509Z,6.50
2019-05-18T06:13:24.493Z,6.10
2019-05-18T06:15:59.677Z,5.40
2019-05-18T06:18:31.724Z,5.47
2019-05-18T06:21:03.766Z,4.92
2019-05-18T06:23:35.812Z,4.33
2019-05-18T06:26:07.820Z,3.99
2019-05-18T06:28:39.801Z,3.68
2019-05-18T06:31:11.772Z,3.50
2019-05-18T06:33:43.821Z,2.74
2019-05-18T06:36:15.801Z,2.81
2019-05-18T06:38:47.831Z,2.81
2019-05-18T06:41:19.843Z,2.65
2019-05-18T06:43:51.818Z,2.06
2019-05-18T06:46:23.879Z,1.65
2019-05-18T06:48:56.759Z,1.43
2019-05-18T06:51:28.727Z,1.14
2019-05-18T06:54:01.079Z,0.91
2019-05-18T06:56:34.409Z,0.56
2019-05-18T06:59:06.415Z,0.71
2019-05-18T07:01:38.793Z,0.59
2019-05-18T07:04:10.858Z,0.29
2019-05-18T07:06:43.276Z,0.30
2019-05-18T07:09:15.414Z,0.05
2019-05-18T07:11:47.365Z,0.00
2019-05-18T07:14:25.821Z,0.00
2019-05-18T07:16:52.995Z,0.00
2019-05-18T07:19:24.962Z,0.00
2019-05-18T07:21:56.965Z,0.00
2019-05-18T07:24:28.945Z,0.00
2019-05-18T07:27:01.303Z,0.00
2019-05-18T07:29:33.454Z,0.00
2019-05-18T07:32:05.448Z,0.00
2019-05-18T07:34:37.440Z,0.00
2019-05-18T07:37:09.437Z,0.00
2019-05-18T07:39:41.449Z,0.00
2019-05-18T07:42:13.407Z,0.00
2019-05-18T07:44:45.377Z,0.00
2019-05-18T07:47:17.368Z,0.00
2019-05-18T07:49:49.347Z,0.00
2019-05-18T07:52:21.375Z,0.00
2019-05-18T07:54:53.329Z,0.00
2019-05-18T07:57:25.365Z,0.00
2019-05-18T07:59:57.322Z,0.00
2019-05-18T08:02:30.055Z,0.00
2019-05-18T08:05:02.115Z,0.00
2019-05-18T08:07:34.061Z,0.00
2019-05-18T08:10:07.995Z,0.00
2019-05-18T08:12:40.143Z,0.00
2019-05-18T08:15:12.903Z,0.22
2019-05-18T08:17:44.909Z,0.29
2019-05-18T08:20:17.017Z,0.30
2019-05-18T08:22:48.961Z,0.00
2019-05-18T08:25:21.631Z,0.00
2019-05-18T08:27:53.586Z,0.00
2019-05-18T08:30:25.531Z,0.00
2019-05-18T08:32:57.527Z,0.00
2019-05-18T08:35:29.535Z,0.00
2019-05-18T08:38:01.558Z,0.00
2019-05-18T08:40:33.568Z,0.00
2019-05-18T08:43:05.527Z,0.00
2019-05-18T08:45:37.517Z,0.00
2019-05-18T08:48:09.990Z,0.00
2019-05-18T08:50:41.931Z,0.00
2019-05-18T08:53:14.088Z,0.00
2019-05-18T08:55:46.063Z,0.00
2019-05-18T08:58:18.387Z,0.00
2019-05-18T09:00:50.639Z,0.00
2019-05-18T09:03:22.598Z,0.00
2019-05-18T09:05:54.960Z,0.00
2019-05-18T09:08:26.929Z,0.00
2019-05-18T09:10:58.942Z,0.00
2019-05-18T09:13:31.205Z,0.00
2019-05-18T09:16:03.234Z,1.68
2019-05-18T09:18:35.197Z,2.17
2019-05-18T09:21:07.200Z,2.16
2019-05-18T09:23:39.240Z,5.95
2019-05-18T09:26:11.160Z,4.11
2019-05-18T09:28:43.169Z,3.69
2019-05-18T09:31:15.159Z,4.51
2019-05-18T09:33:47.172Z,2.03
2019-05-18T09:36:19.158Z,0.67
2019-05-18T09:38:51.206Z,0.00
2019-05-18T09:41:23.207Z,0.00
2019-05-18T09:43:55.118Z,0.00
2019-05-18T09:46:27.087Z,0.07
2019-05-18T09:48:59.059Z,0.00
2019-05-18T09:51:31.202Z,0.00
2019-05-18T09:54:03.147Z,0.00
2019-05-18T09:56:35.153Z,0.33
2019-05-18T09:59:07.136Z,0.65
2019-05-18T10:01:39.131Z,0.50
2019-05-18T10:04:11.077Z,0.49
2019-05-18T10:06:43.022Z,0.00
2019-05-18T10:09:15.005Z,0.00
2019-05-18T10:11:46.977Z,0.00
2019-05-18T10:14:18.987Z,0.00
2019-05-18T10:16:50.967Z,0.00
2019-05-18T10:19:22.969Z,0.00
2019-05-18T10:21:54.923Z,0.00
2019-05-18T10:24:26.948Z,0.00
2019-05-18T10:26:58.926Z,0.00
2019-05-18T10:29:31.361Z,0.00
2019-05-18T10:32:03.423Z,0.00
2019-05-18T10:34:35.401Z,0.00
2019-05-18T10:37:07.678Z,0.00
2019-05-18T10:39:39.916Z,0.00
2019-05-18T10:42:12.088Z,0.00
2019-05-18T10:44:47.076Z,0.00
2019-05-18T10:47:19.048Z,0.00
2019-05-18T10:49:51.012Z,0.00
2019-05-18T10:52:23.036Z,0.00
2019-05-18T10:54:54.982Z,0.00
2019-05-18T10:57:26.987Z,0.00
2019-05-18T10:59:59.119Z,0.00
2019-05-18T11:02:32.279Z,0.00
2019-05-18T11:05:04.231Z,0.00
2019-05-18T11:07:36.217Z,0.00
2019-05-18T11:10:09.272Z,0.00
2019-05-18T11:12:41.526Z,0.00
2019-05-18T11:15:14.442Z,0.00
2019-05-18T11:17:46.423Z,0.00
2019-05-18T11:20:18.813Z,0.00
2019-05-18T11:22:51.071Z,0.00
2019-05-18T11:25:23.329Z,0.00
2019-05-18T11:27:55.269Z,0.57
2019-05-18T11:30:27.209Z,2.36
2019-05-18T11:32:59.170Z,4.16
2019-05-18T11:35:31.157Z,5.80
2019-05-18T11:38:03.199Z,6.95
2019-05-18T11:40:35.238Z,8.54
2019-05-18T11:43:07.461Z,9.51
2019-05-18T11:45:40.121Z,10.49
2019-05-18T11:48:12.138Z,11.56
2019-05-18T11:50:44.106Z,12.55
2019-05-18T11:53:16.126Z,13.76
2019-05-18T11:55:48.059Z,15.53
2019-05-18T11:58:20.443Z,16.53
2019-05-18T12:00:52.567Z,17.00
2019-05-18T12:03:24.668Z,17.19
2019-05-18T12:05:56.693Z,18.38
2019-05-18T12:08:28.659Z,18.79
2019-05-18T12:11:00.639Z,20.28
2019-05-18T12:13:32.634Z,20.98
2019-05-18T12:16:04.724Z,22.09
2019-05-18T12:18:36.787Z,22.13
2019-05-18T12:21:09.066Z,22.89
2019-05-18T12:23:41.331Z,23.39
2019-05-18T12:26:13.402Z,24.17
2019-05-18T12:28:45.347Z,23.98
2019-05-18T12:31:17.399Z,24.13
2019-05-18T12:33:50.765Z,23.79
2019-05-18T12:36:22.821Z,23.75
2019-05-18T12:38:54.796Z,23.73
2019-05-18T12:41:29.778Z,22.80
2019-05-18T12:44:02.036Z,23.20
2019-05-18T12:46:34.160Z,23.27
2019-05-18T12:49:06.135Z,23.81
2019-05-18T12:51:38.130Z,23.63
2019-05-18T12:54:10.129Z,23.90
2019-05-18T12:56:42.098Z,23.69
2019-05-18T12:59:14.072Z,23.85
2019-05-18T13:01:46.030Z,24.02
2019-05-18T13:04:18.124Z,23.91
2019-05-18T13:06:50.100Z,24.01
2019-05-18T13:09:23.803Z,23.66
2019-05-18T13:11:55.993Z,24.19
2019-05-18T13:14:27.924Z,24.93
2019-05-18T13:16:59.978Z,25.41
2019-05-18T13:19:31.958Z,25.49
2019-05-18T13:22:04.003Z,23.83
2019-05-18T13:24:44.742Z,23.80
2019-05-18T13:27:09.652Z,23.20
2019-05-18T13:29:41.621Z,22.81
2019-05-18T13:32:13.634Z,22.86
2019-05-18T13:34:45.679Z,22.36
2019-05-18T13:37:17.647Z,22.04
2019-05-18T13:39:49.608Z,21.45
2019-05-18T13:42:21.666Z,20.56
2019-05-18T13:44:53.624Z,20.17
2019-05-18T13:47:25.686Z,20.17
2019-05-18T13:49:58.404Z,20.68
2019-05-18T13:52:30.877Z,21.25
2019-05-18T13:55:05.052Z,21.57
2019-05-18T13:57:36.684Z,22.08
2019-05-18T14:00:09.857Z,21.67
2019-05-18T14:02:41.865Z,21.63
2019-05-18T14:05:15.502Z,22.36
2019-05-18T14:07:47.501Z,23.06
2019-05-18T14:10:19.597Z,23.52
2019-05-18T14:12:51.558Z,23.93
2019-05-18T14:15:23.678Z,24.26
2019-05-18T14:17:55.685Z,24.95
2019-05-18T14:20:27.839Z,25.36
2019-05-18T14:23:00.511Z,25.60
2019-05-18T14:25:32.485Z,25.44
2019-05-18T14:28:04.464Z,25.57
2019-05-18T14:30:36.458Z,25.84
2019-05-18T14:33:08.554Z,25.67
2019-05-18T14:35:40.579Z,25.45
2019-05-18T14:38:12.605Z,24.99
2019-05-18T14:40:44.684Z,24.63
2019-05-18T14:43:16.764Z,24.88
2019-05-18T14:45:49.528Z,24.65
2019-05-18T14:48:21.883Z,24.58
2019-05-18T14:50:53.965Z,24.57
2019-05-18T14:53:26.025Z,24.73
2019-05-18T14:55:58.019Z,25.52
2019-05-18T14:58:30.112Z,26.04
2019-05-18T15:01:02.108Z,26.58
2019-05-18T15:03:34.220Z,27.05
2019-05-18T15:06:06.286Z,27.44
2019-05-18T15:08:38.265Z,27.99
2019-05-18T15:11:10.609Z,28.09
2019-05-18T15:13:42.628Z,27.88
2019-05-18T15:16:14.591Z,27.96
2019-05-18T15:18:46.577Z,28.10
2019-05-18T15:21:18.650Z,28.24
2019-05-18T15:23:51.015Z,28.98
2019-05-18T15:26:23.066Z,29.44
2019-05-18T15:28:55.118Z,29.66
2019-05-18T15:31:27.106Z,29.35
2019-05-18T15:33:59.070Z,29.39
2019-05-18T15:36:31.368Z,29.35
2019-05-18T15:39:03.326Z,29.12
2019-05-18T15:41:35.320Z,28.79
2019-05-18T15:44:07.304Z,28.25
2019-05-18T15:46:39.266Z,27.52
2019-05-18T15:49:11.293Z,27.20
2019-05-18T15:51:43.347Z,27.11
2019-05-18T15:54:15.411Z,26.37
2019-05-18T15:56:47.426Z,26.55
2019-05-18T15:59:19.997Z,26.87
2019-05-18T16:01:52.014Z,27.38
2019-05-18T16:04:27.757Z,27.41
2019-05-18T16:07:00.233Z,27.56
2019-05-18T16:09:32.181Z,27.41
2019-05-18T16:12:04.389Z,27.41
2019-05-18T16:14:36.449Z,27.54
2019-05-18T16:17:08.450Z,27.65
2019-05-18T16:19:40.445Z,27.36
2019-05-18T16:22:12.467Z,27.61
2019-05-18T16:24:44.455Z,27.80
2019-05-18T16:27:16.492Z,29.19
2019-05-18T16:29:48.466Z,30.44
2019-05-18T16:32:21.080Z,31.70
2019-05-18T16:34:53.046Z,35.76
2019-05-18T16:37:25.033Z,37.87
2019-05-18T16:39:57.028Z,39.94
2019-05-18T16:42:29.057Z,41.48
2019-05-18T16:45:01.270Z,41.05
2019-05-18T16:47:33.328Z,41.70
2019-05-18T16:50:05.739Z,42.22
2019-05-18T16:52:37.697Z,42.82
2019-05-18T16:55:10.197Z,43.64
2019-05-18T16:57:42.207Z,45.32
2019-05-18T17:00:16.736Z,47.33
2019-05-18T17:02:48.826Z,47.65
2019-05-18T17:05:20.854Z,47.24
2019-05-18T17:07:52.826Z,47.32
2019-05-18T17:10:24.821Z,47.58
2019-05-18T17:12:56.775Z,47.98
2019-05-18T17:15:28.910Z,47.93
2019-05-18T17:18:02.385Z,47.54
2019-05-18T17:20:34.383Z,47.94
2019-05-18T17:23:06.480Z,48.27
2019-05-18T17:25:38.453Z,48.27
2019-05-18T17:28:10.803Z,47.94
2019-05-18T17:30:43.069Z,47.29
2019-05-18T17:33:15.201Z,47.39
2019-05-18T17:35:59.911Z,47.74
2019-05-18T17:38:21.217Z,47.79
2019-05-18T17:40:53.201Z,47.38
2019-05-18T17:43:25.207Z,46.86
2019-05-18T17:45:57.207Z,46.73
2019-05-18T17:48:29.830Z,47.48
2019-05-18T17:51:01.833Z,47.44
2019-05-18T17:53:33.868Z,47.41
2019-05-18T17:56:05.937Z,47.79
2019-05-18T17:58:38.008Z,47.71
2019-05-18T18:01:10.245Z,48.20
2019-05-18T18:03:42.274Z,49.43
2019-05-18T18:06:14.296Z,50.18
2019-05-18T18:08:46.288Z,51.14
2019-05-18T18:11:18.234Z,51.33
2019-05-18T18:13:50.564Z,51.37
2019-05-18T18:16:22.565Z,56.21
2019-05-18T18:18:54.568Z,66.84
2019-05-18T18:21:26.546Z,74.46
2019-05-18T18:23:58.620Z,82.40
2019-05-18T18:26:30.566Z,87.96
2019-05-18T18:29:04.226Z,92.75
2019-05-18T18:31:36.293Z,95.30
2019-05-18T18:34:08.371Z,95.54
2019-05-18T18:36:40.860Z,97.36
2019-05-18T18:39:12.810Z,97.75
2019-05-18T18:41:44.828Z,98.45
2019-05-18T18:44:16.872Z,98.49
2019-05-18T18:46:48.847Z,98.56
2019-05-18T18:49:21.215Z,97.29
2019-05-18T18:51:53.319Z,97.42
2019-05-18T18:54:25.375Z,97.59
2019-05-18T18:56:57.382Z,97.59
2019-05-18T18:59:29.370Z,98.05
2019-05-18T19:02:01.336Z,98.44
2019-05-18T19:04:33.327Z,99.02
2019-05-18T19:07:05.311Z,99.76
2019-05-18T19:09:37.359Z,100.00
2019-05-18T19:12:09.425Z,100.00
2019-05-18T19:14:41.404Z,100.00
2019-05-18T19:17:13.449Z,100.00
2019-05-18T19:19:45.458Z,100.00
2019-05-18T19:22:17.407Z,100.00
2019-05-18T19:24:49.993Z,100.00
2019-05-18T19:27:21.939Z,99.00
2019-05-18T19:29:53.926Z,100.00
2019-05-18T19:32:25.930Z,100.00
2019-05-18T19:34:57.962Z,99.93
2019-05-18T19:37:30.599Z,98.72
2019-05-18T19:40:02.666Z,97.87
2019-05-18T19:42:34.687Z,99.20
2019-05-18T19:45:07.440Z,100.00
2019-05-18T19:47:39.598Z,100.00
2019-05-18T19:50:13.845Z,100.00
2019-05-18T19:52:45.849Z,100.00
2019-05-18T19:55:18.229Z,100.00
2019-05-18T19:57:50.285Z,100.00
2019-05-18T20:00:22.821Z,100.00
2019-05-18T20:02:54.909Z,100.00
2019-05-18T20:05:26.986Z,100.00
2019-05-18T20:07:59.013Z,100.00
2019-05-18T20:10:31.290Z,100.00
2019-05-18T20:13:03.283Z,100.00
2019-05-18T20:15:35.333Z,100.00
2019-05-18T20:18:07.514Z,100.00
2019-05-18T20:20:39.558Z,100.00
2019-05-18T20:23:11.577Z,99.89
2019-05-18T20:25:43.669Z,99.76
2019-05-18T20:28:23.266Z,99.69
2019-05-18T20:30:49.479Z,99.64
2019-05-18T20:33:21.575Z,97.92
2019-05-18T20:35:53.637Z,96.71
2019-05-18T20:38:25.593Z,97.52
2019-05-18T20:40:57.568Z,94.62
2019-05-18T20:43:29.637Z,92.76
2019-05-18T20:46:01.673Z,94.56
2019-05-18T20:48:33.664Z,94.87
2019-05-18T20:51:05.691Z,95.76
2019-05-18T20:53:40.869Z,96.02
2019-05-18T20:56:11.342Z,95.17
2019-05-18T20:58:43.306Z,95.75
2019-05-18T21:01:15.311Z,96.10
2019-05-18T21:03:47.348Z,95.21
2019-05-18T21:06:19.997Z,94.91
2019-05-18T21:08:52.051Z,95.27
2019-05-18T21:11:24.133Z,94.81
2019-05-18T21:13:57.788Z,95.05
2019-05-18T21:16:29.990Z,95.88
2019-05-18T21:19:01.976Z,96.63
2019-05-18T21:21:34.069Z,97.26
2019-05-18T21:24:06.074Z,97.63
2019-05-18T21:26:38.075Z,98.03
2019-05-18T21:29:10.377Z,98.14
2019-05-18T21:31:42.422Z,98.31
2019-05-18T21:34:14.413Z,98.66
2019-05-18T21:36:46.470Z,99.08
2019-05-18T21:39:18.430Z,99.04
2019-05-18T21:41:50.830Z,99.24
2019-05-18T21:44:22.864Z,99.59
2019-05-18T21:46:54.880Z,99.96
2019-05-18T21:49:26.851Z,100.00
2019-05-18T21:51:58.828Z,100.00
2019-05-18T21:54:31.753Z,100.00
2019-05-18T21:57:03.926Z,100.00
2019-05-18T21:59:35.914Z,100.00
2019-05-18T22:02:08.283Z,100.00
2019-05-18T22:04:40.245Z,100.00
2019-05-18T22:07:12.281Z,99.99
2019-05-18T22:09:44.356Z,100.00
2019-05-18T22:12:16.338Z,99.28
2019-05-18T22:14:48.311Z,99.03
2019-05-18T22:17:20.307Z,99.58
2019-05-18T22:19:52.257Z,99.97
2019-05-18T22:22:24.333Z,100.00
2019-05-18T22:24:56.358Z,100.00
2019-05-18T22:27:28.319Z,100.00
2019-05-18T22:30:00.552Z,100.00
2019-05-18T22:32:32.625Z,99.33
2019-05-18T22:35:04.679Z,95.99
2019-05-18T22:37:36.840Z,96.28
2019-05-18T22:40:08.839Z,94.67
2019-05-18T22:42:41.376Z,93.16
2019-05-18T22:45:13.702Z,93.70
2019-05-18T22:47:45.674Z,94.07
2019-05-18T22:50:17.884Z,93.70
2019-05-18T22:52:49.918Z,94.62
2019-05-18T22:55:21.896Z,95.84
2019-05-18T22:57:53.865Z,96.66
2019-05-18T23:00:25.886Z,97.67
2019-05-18T23:02:57.903Z,97.64
2019-05-18T23:05:30.242Z,97.61
2019-05-18T23:08:02.260Z,98.23
2019-05-18T23:10:34.191Z,99.12
2019-05-18T23:13:06.283Z,99.79
2019-05-18T23:15:38.342Z,100.00
2019-05-18T23:18:10.869Z,100.00
2019-05-18T23:20:42.833Z,100.00
2019-05-18T23:23:14.814Z,100.00
2019-05-18T23:25:46.820Z,100.00
2019-05-18T23:28:18.783Z,100.00
2019-05-18T23:30:50.849Z,100.00
2019-05-18T23:33:22.819Z,100.00
2019-05-18T23:35:55.477Z,100.00
2019-05-18T23:38:27.602Z,100.00
2019-05-18T23:41:00.092Z,100.00
2019-05-18T23:43:32.089Z,100.00
2019-05-18T23:46:04.124Z,100.00
2019-05-18T23:48:36.155Z,100.00
2019-05-18T23:51:08.160Z,100.00
2019-05-18T23:53:40.487Z,100.00
2019-05-18T23:56:12.465Z,100.00
2019-05-18T23:58:44.419Z,100.00
